x

Tanner Bank - 121nm West Of San Diego, Ca (46047) Wave Buoy

3:50 - Sun 28th May 2017 All times are PDT. -7 hours from GMT.

  • Sig Wave height 4.6ft
  • Swell Direction
  • Peak Period 10s
  • Average Period 5s
  • Wind
    18mph, 20mph gusts
  • Sea Temp 60°f
  • Luft Temp 58°f
  • Sea Pressure 1016.8mb
  • Tanner Bank - 121nm West Of San Diego, Ca
  • Tanner Bank - 121nm West Of San Diego, Ca

More Historic Weather Station data

Upgrade to MSW Pro to gain access to the past 30 days of data for over 8000 Wavebouys and Weather Stations around the globe.

Join Pro

Comparision Forecast

View Surf forecast
   
So 05/28 3:50 4.5ft 10s 5s 18 20 mph 1016.8mb 60f 58f
2:50 4.5ft 5s 5s 16 18 mph 1017.2mb 60f 58f
1:50 4.5ft 14s 6s 16 20 mph 1017.5mb 60f 58f
12:50 4.5ft 10s 5s 13 18 mph 1017.8mb 60f 58f
Sa 05/27 11:50 4.5ft 10s 5s 16 18 mph 1018.1mb 60f 58f
10:50 4.5ft 14s 5s 16 18 mph 1018mb 60f 58f
9:50 4.5ft 14s 6s 18 20 mph 1017.8mb 60f 58f
8:50 3.5ft 14s 5s 18 20 mph 1017.6mb 60f 59f
7:50 4ft 11s 6s 18 20 mph 1017.4mb 60f 59f
6:50 4ft 11s 5s 16 20 mph 1017.6mb 60f 59f
5:50 3.5ft 11s 5s 18 20 mph 1018.1mb 60f 59f
4:50 3.5ft 10s 6s 16 20 mph 1018.3mb 61f 59f
3:50 3.5ft 11s 6s 13 18 mph 1018.8mb 61f 59f
2:50 4ft 11s 6s 13 16 mph 1018.8mb 61f 59f
1:50 4.5ft 14s 7s 13 16 mph 1019.1mb 61f 59f
12:50 5ft 11s 7s 13 16 mph 1019.5mb 60f 59f
11:50 4.5ft 10s 7s 13 16 mph 1019.3mb 60f 59f
10:50 4ft 11s 7s 11 13 mph 1019.2mb 60f 59f
9:50 4.5ft 10s 7s 9 11 mph 1019.1mb 60f 59f
8:50 4.5ft 11s 8s 13 18 mph 1018.8mb 60f 58f
7:50 4ft 15s 8s 9 13 mph 1018.4mb 60f 58f
6:50 4ft 10s 8s 11 13 mph 1017.8mb 60f 57f
5:50 3.5ft 10s 8s 11 13 mph 1017.3mb 61f 59f
4:50 4.5ft 14s 9s 7 9 mph 1016.9mb 61f 58f
3:50 3.5ft 13s 8s 9 11 mph 1016.8mb 59f 59f
2:50 4ft 10s 8s 9 16 mph 1016.8mb 59f 59f
1:50 4.5ft 10s 8s 7 13 mph 1016.9mb 60f 59f
12:50 4.5ft 10s 7s 11 13 mph 1017.1mb 60f 59f
Fr 05/26 11:50 4.5ft 15s 8s 7 13 mph 1017.3mb 61f 60f
10:50 4ft 15s 8s 11 13 mph 1017.2mb 62f 60f
9:50 4.5ft 11s 8s 4 11 mph 1016.8mb 63f 59f
8:50 4.5ft 10s 9s 7 9 mph 1016.3mb 62f 60f
7:50 4.5ft 11s 9s 9 11 mph 1015.8mb 63f 60f
6:50 4ft 11s 8s 7 9 mph 1015.6mb 64f 60f
5:50 4.5ft 11s 9s 7 9 mph 1015.8mb 64f 61f
4:50 4ft 11s 9s 2 4 mph 1015.8mb 64f 61f
3:50 4.5ft 11s 9s 2 4 mph 1015.9mb 61f 61f
2:50 4.5ft 11s 9s 2 4 mph 1016.1mb 63f 60f
1:50 4.5ft 11s 8s 4 4 mph 1016.2mb 62f 60f
12:50 4.5ft 11s 8s 4 7 mph 1016.3mb 62f 60f
11:50 5ft 11s 9s 4 7 mph 1016.1mb 62f 60f
10:50 4.5ft 11s 8s 4 7 mph 1015.7mb 61f 59f
9:50 4.5ft 11s 8s 2 4 mph 1015.3mb 61f 60f
8:50 5ft 11s 9s 2 2 mph 1015mb 60f 59f
7:50 4.5ft 12s 9s 2 2 mph 1014.5mb 60f 59f
6:50 4.5ft 11s 9s 4 7 mph 1014mb 60f 59f
5:50 4.5ft 12s 9s 9 11 mph 1013.7mb 60f 59f
4:50 4.5ft 13s 9s 11 13 mph 1013.5mb 60f 60f
3:50 4.5ft 12s 9s 9 11 mph 1013.2mb 60f 60f
2:50 4.5ft 14s 9s 7 9 mph 1013.2mb 60f 60f
1:50 4.5ft 11s 9s 7 9 mph 1013.1mb 60f 60f
12:50 4ft 12s 9s 7 9 mph 1013.1mb 60f 59f
Do 05/25 11:50 4.5ft 11s 9s 7 9 mph 1013mb 60f 60f
10:50 5ft 12s 9s 7 9 mph 1012.9mb 60f 60f
9:50 4.5ft 13s 9s 4 7 mph 1012.3mb 60f 60f
8:50 5ft 11s 10s 7 9 mph 1011.8mb 61f 59f
7:50 5ft 13s 10s 7 9 mph 1011.3mb 61f 60f
6:50 4.5ft 11s 10s 7 9 mph 1011mb 61f 60f
5:50 4.5ft 11s 9s 9 9 mph 1010.9mb 61f 60f
4:50 4.5ft 13s 10s 7 9 mph 1011.2mb 60f 60f
3:50 4.5ft 12s 10s 4 7 mph 1011.6mb 61f 60f
2:50 4.5ft 11s 10s 7 7 mph 1011.9mb 61f 60f
1:50 5.5ft 13s 10s 7 7 mph 1012mb 60f 60f
12:50 5ft 12s 10s 7 9 mph 1012mb 60f 60f
11:50 5ft 13s 9s 9 9 mph 1012.2mb 59f 60f
10:50 5ft 13s 9s 7 9 mph 1012mb 59f 59f
9:50 5ft 12s 9s 9 11 mph 1011.9mb 59f 59f
8:50 5ft 14s 9s  -  0 mph 1011.6mb 59f 60f
7:50 4.5ft 12s 8s 4 4 mph 1011.5mb 59f 60f
6:50 5ft 14s 9s 2 4 mph 1011.1mb 59f 60f
5:50 5ft 13s 9s 7 9 mph 1011mb 60f 60f
4:50 4.5ft 11s 8s 7 9 mph 1010.9mb 60f 59f
3:50 4ft 11s 7s 9 13 mph 1010.9mb 60f 60f
2:50 4ft 14s 7s 9 11 mph 1010.9mb 59f 59f
1:50 4ft 13s 7s 4 7 mph 1011mb 59f 60f
12:50 4.5ft 14s 7s 9 13 mph 1011.1mb 59f 60f
Mi 05/24 11:50 4.5ft 13s 7s 9 13 mph 1011.4mb 59f 60f
10:50 4.5ft 14s 6s 9 11 mph 1011.4mb 59f 59f
9:50 4.5ft 14s 6s 11 13 mph 1010.9mb 59f 59f
8:50 4ft 14s 6s 13 16 mph 1010.4mb 59f 59f
7:50 4.5ft 14s 6s 16 20 mph 1010.1mb 59f 59f
6:50 4.5ft 14s 7s 18 20 mph 1010.3mb 59f 59f
5:50 4.5ft 14s 7s 18 20 mph 1010.7mb 60f 59f
4:50 4.5ft 14s 7s 16 20 mph 1010.8mb 60f 59f
3:50 4.5ft 14s 7s 13 18 mph 1011.5mb 60f 59f
2:50 4.5ft 14s 6s 11 13 mph 1012.1mb 60f 58f
1:50 5ft 15s 7s 11 13 mph 1012.6mb 60f 58f
12:50 4.5ft 14s 6s 11 11 mph 1012.9mb 60f 58f